Flight Track Log - Related Links

Times and Time Zones

All times are in EST time to prevent confusion due to time zone crossing. See the N21921 flight status page for this flight to view local times or setup timezone preferences in your user account.

Time Position Orientation Groundspeed Altitude Reporting Facility
EST Latitude Longitude Course Direction KTS MPH feet Rate Location/Type
Fri 06:24:29 AM 40.9342 -75.1053 272° West 210 242 6,600  Level New York Center
Fri 06:25:29 AM 40.9358 -75.1686 272° West 189 217 6,600  Level New York Center
Fri 06:26:29 AM 40.9381 -75.2236 273° West 172 198 6,600  Level New York Center
Fri 06:27:29 AM 40.9397 -75.2869 272° West 172 198 6,600  Level New York Center
Fri 06:28:29 AM 40.9436 -75.3531 274° West 172 198 6,600  Level New York Center
Fri 06:29:29 AM 40.9475 -75.4139 275° West 172 198 6,600  Level New York Center
Fri 06:30:29 AM 40.9492 -75.4772 272° West 177 204 6,600  Level New York Center
Fri 06:31:29 AM 40.9528 -75.5378 275° West 177 204 6,600  Level New York Center
Fri 06:32:29 AM 40.9525 -75.5983 270° West 177 204 6,600  Level New York Center
Fri 06:33:29 AM 40.9544 -75.6561 273° West 177 204 6,600  Level New York Center
Fri 06:34:30 AM 40.9578 -75.7222 274° West 177 204 6,600  Level New York Center
Fri 06:35:29 AM 40.9594 -75.7828 272° West 177 204 6,600  Level New York Center
Fri 06:36:29 AM 40.9628 -75.8519 274° West 170 196 6,600  Level New York Center
Fri 06:37:29 AM 40.9647 -75.9014 273° West 170 196 6,600 -50 Level New York Center
Fri 06:38:29 AM 40.9678 -75.9786 273° West 175 201 6,500 -50 Descending New York Center
Fri 06:39:29 AM 40.9692 -76.0392 272° West 169 194 6,500  Level New York Center
Fri 06:40:29 AM 40.9728 -76.0972 275° West 163 188 6,500  Level New York Center
Fri 06:41:29 AM 40.9764 -76.1553 275° West 169 194 6,500  Level New York Center
Fri 06:42:29 AM 40.9758 -76.2156 269° West 169 194 6,500  Level New York Center
Fri 06:43:29 AM 40.9775 -76.2653 273° West 163 188 6,500 50 Level New York Center
Fri 06:44:29 AM 40.9789 -76.3258 272° West 163 188 6,600 50 Climbing New York Center
Fri 06:45:29 AM 40.9822 -76.3919 274° West 163 188 6,600  Level New York Center
Fri 06:46:29 AM 40.9856 -76.4528 274° West 163 188 6,600  Level New York Center
Fri 06:47:29 AM 40.9847 -76.5106 269° West 158 182 6,600  Level New York Center
Fri 06:48:29 AM 40.9861 -76.5656 272° West 163 188 6,600  Level New York Center
Fri 06:49:29 AM 40.9892 -76.6319 274° West 163 188 6,600  Level New York Center
Fri 06:50:29 AM 40.9906 -76.6897 272° West 168 193 6,600  Level New York Center
Fri 06:51:29 AM 40.9939 -76.7478 274° West 168 193 6,600 50 Level New York Center
Fri 06:52:29 AM 40.9950 -76.8083 271° West 168 193 6,700  Climbing New York Center
Fri 06:53:29 AM 40.9961 -76.8689 271° West 168 193 6,600 -50 Descending New York Center
Fri 06:54:29 AM 40.9969 -76.9294 271° West 168 193 6,600  Level New York Center
Fri 06:55:29 AM 40.9983 -76.9847 272° West 162 186 6,600  Level New York Center
Fri 06:56:29 AM 41.0014 -77.0428 274° West 162 186 6,600  Level New York Center
Fri 06:57:29 AM 41.0025 -77.1006 271° West 162 186 6,600  Level New York Center
Fri 06:58:29 AM 41.0039 -77.1556 272° West 162 186 6,600  Level New York Center
Fri 06:59:29 AM 41.0047 -77.2136 271° West 162 186 6,600  Level New York Center
Fri 07:00:29 AM 41.0081 -77.2717 274° West 162 186 6,600  Level New York Center
Fri 07:01:29 AM 41.0089 -77.3322 271° West 162 186 6,600  Level New York Center
Fri 07:02:29 AM 41.0114 -77.3983 273° West 162 186 6,600  Level New York Center
Fri 07:03:30 AM 41.0122 -77.4592 271° West 162 186 6,600  Level New York Center
Fri 07:04:29 AM 41.0131 -77.5169 271° West 162 186 6,600  Level New York Center
Fri 07:05:29 AM 41.0158 -77.5778 273° West 162 186 6,600 -31 Level New York Center
Fri 07:07:41 AM 41.0175 -77.7017 271° West 160 184 6,500 -31 Descending Cleveland Center
Fri 07:08:43 AM 41.0183 -77.7606 271° West 161 185 6,500  Level Cleveland Center
Fri 07:09:44 AM 41.0192 -77.8175 271° West 158 182 6,500  Level Cleveland Center
Fri 07:10:45 AM 41.0200 -77.8742 271° West 157 181 6,500 -49 Level Cleveland Center
Fri 07:11:46 AM 41.0214 -77.9292 272° West 153 176 6,400 -49 Descending Cleveland Center
Fri 07:12:47 AM 41.0222 -77.9842 271° West 151 174 6,400  Level Cleveland Center
Fri 07:13:49 AM 41.0233 -78.0406 272° West 152 175 6,400  Level Cleveland Center
Fri 07:14:50 AM 41.0244 -78.1094 271° West 155 178 6,400  Level Cleveland Center
Fri 07:15:51 AM 41.0256 -78.1642 272° West 152 175 6,400  Level Cleveland Center
Fri 07:16:52 AM 41.0267 -78.2203 272° West 152 175 6,400 98 Level Cleveland Center
Fri 07:17:53 AM 41.0275 -78.2758 271° West 152 175 6,600 98 Climbing Cleveland Center
Fri 07:18:55 AM 41.0283 -78.3289 271° West 147 169 6,600  Level Cleveland Center
Fri 07:19:56 AM 41.0297 -78.3861 272° West 152 175 6,600  Level Cleveland Center
Fri 07:20:57 AM 41.0308 -78.4450 271° West 158 182 6,600  Level Cleveland Center
Fri 07:21:58 AM 41.0311 -78.5039 270° West 159 183 6,600  Level Cleveland Center
Fri 07:22:59 AM 41.0325 -78.5647 272° West 159 183 6,600  Level Cleveland Center
Fri 07:24:01 AM 41.0333 -78.6233 271° West 158 182 6,600  Level Cleveland Center
Fri 07:25:02 AM 41.0342 -78.6814 271° West 157 181 6,600  Level Cleveland Center
Fri 07:26:03 AM 41.0344 -78.7397 270° West 158 182 6,600  Level Cleveland Center
Fri 07:27:04 AM 41.0347 -78.7972 270° West 158 182 6,600  Level Cleveland Center
Fri 07:28:06 AM 41.0358 -78.8633 271° West 153 176 6,600  Level Cleveland Center
Fri 07:29:07 AM 41.0361 -78.9192 270° West 152 175 6,600 -98 Level Cleveland Center
Fri 07:30:08 AM 41.0356 -78.9775 269° West 156 180 6,400 -195 Descending Cleveland Center
Fri 07:31:10 AM 41.0369 -79.0372 272° West 161 185 6,200 -146 Descending Cleveland Center
Fri 07:32:11 AM 41.0381 -79.0956 271° West 161 185 6,100 -49 Descending Cleveland Center
Fri 07:33:13 AM 41.0389 -79.1514 271° West 157 181 6,100  Level Cleveland Center
Fri 07:34:14 AM 41.0397 -79.2056 271° West 153 176 6,100  Level Cleveland Center
Fri 07:35:15 AM 41.0392 -79.2633 269° West 153 176 6,100  Level Cleveland Center
Fri 07:36:17 AM 41.0392 -79.3222 270° West 157 181 6,100  Level Cleveland Center
Fri 07:37:18 AM 41.0406 -79.3914 272° West 157 181 6,100  Level Cleveland Center
Fri 07:38:20 AM 41.0403 -79.4508 270° West 159 183 6,100  Level Cleveland Center
Fri 07:39:21 AM 41.0406 -79.5103 270° West 161 185 6,100  Level Cleveland Center
Fri 07:40:22 AM 41.0414 -79.5689 271° West 161 185 6,100  Level Cleveland Center
Fri 07:41:24 AM 41.0417 -79.6289 270° West 162 186 6,100  Level Cleveland Center
Fri 07:42:25 AM 41.0419 -79.6889 270° West 163 188 6,100  Level Cleveland Center
Fri 07:43:27 AM 41.0419 -79.7475 270° West 161 185 6,100  Level Cleveland Center
Fri 07:44:28 AM 41.0414 -79.8200 269° West 164 189 6,100  Level Cleveland Center
Fri 07:45:30 AM 41.0417 -79.8797 270° West 163 188 6,100  Level Cleveland Center
Fri 07:46:31 AM 41.0447 -79.9400 274° West 164 189 6,100  Level Cleveland Center
Fri 07:47:33 AM 41.0481 -80.0011 274° West 166 191 6,100  Level Cleveland Center
Fri 07:48:34 AM 41.0508 -80.0608 274° West 164 189 6,100  Level Cleveland Center
Fri 07:49:36 AM 41.0544 -80.1208 275° West 164 189 6,100  Level Cleveland Center
Fri 07:50:38 AM 41.0569 -80.1811 273° West 165 190 6,100  Level Cleveland Center
Fri 07:51:39 AM 41.0600 -80.2428 274° West 167 192 6,100  Level Cleveland Center
Fri 07:52:41 AM 41.0628 -80.3150 273° West 165 190 6,100  Level Cleveland Center
Fri 07:53:42 AM 41.0672 -80.3769 275° West 167 192 6,100  Level Cleveland Center
Fri 07:54:44 AM 41.0700 -80.4378 273° West 167 192 6,100  Level Cleveland Center
Fri 07:55:45 AM 41.0728 -80.4989 273° West 167 192 6,100  Level Cleveland Center
Fri 07:56:47 AM 41.0758 -80.5594 274° West 166 191 6,100  Level Cleveland Center
Fri 07:57:48 AM 41.0792 -80.6203 274° West 166 191 6,100 -244 Level Cleveland Center
Fri 07:58:50 AM 41.0817 -80.6847 273° West 172 198 5,600 -488 Descending Cleveland Center
Fri 07:59:51 AM 41.0864 -80.7667 274° West 184 212 5,100 -488 Descending Cleveland Center
Fri 08:00:53 AM 41.0883 -80.8353 272° West 187 215 4,600 -488 Descending Cleveland Center
Fri 08:01:54 AM 41.0931 -80.9028 275° West 185 213 4,100 -244 Descending Cleveland Center
Fri 08:02:56 AM 41.0950 -80.9683 272° West 181 208 4,100  Level Cleveland Center
Fri 08:03:57 AM 41.0978 -81.0322 273° West 176 203 4,100 -98 Level Cleveland Center
Fri 08:04:59 AM 41.1061 -81.1033 279° West 175 201 3,900 -439 Descending Cleveland Center
Fri 08:06:00 AM 41.1119 -81.1725 276° West 182 209 3,200 -439 Descending Cleveland Center
Fri 08:07:02 AM 41.1178 -81.2414 276° West 186 214 3,000 -98 Descending Cleveland Center
Fri 08:08:03 AM 41.1147 -81.3042 266° West 176 203 3,000  Level Cleveland Center
Fri 08:09:05 AM 41.0881 -81.3453 229° Southwest 168 193 3,000  Level Cleveland Center

Login

Don't have an account? Register now (free) for customized features, flight alerts, and more!